Time;durP1;ratioP1;P1;durP2;ratioP2;P2;SDS_P1;SDS_P2;PMS_P1;PMS_P2;Temp;Humidity;BMP_temperature;BMP_pressure;BME280_temperature;BME280_humidity;BME280_pressure;Samples;Min_cycle;Max_cycle;Signal;HPM_P1;HPM_P2
2021/06/01 00:00:17;;;;;;;4.53;3.10;;;13.40;1.00;;;;;;5054059;28;20061;-65
2021/06/01 00:03:06;;;;;;;4.30;3.13;;;13.40;1.00;;;;;;5038292;28;20064;-65
2021/06/01 00:05:55;;;;;;;3.65;2.97;;;13.40;1.00;;;;;;5064190;28;20044;-65
2021/06/01 00:08:44;;;;;;;3.83;3.30;;;13.30;1.00;;;;;;5057948;28;20045;-65
2021/06/01 00:11:32;;;;;;;6.90;3.00;;;13.20;1.00;;;;;;5043227;28;20059;-65
2021/06/01 00:14:21;;;;;;;5.55;3.13;;;13.20;1.00;;;;;;5039932;28;20072;-65
2021/06/01 00:17:09;;;;;;;6.28;3.50;;;13.20;1.00;;;;;;5055847;28;20152;-66
2021/06/01 00:19:57;;;;;;;6.05;3.15;;;13.10;1.00;;;;;;5058441;28;20136;-66
2021/06/01 00:22:46;;;;;;;6.13;3.47;;;13.00;1.00;;;;;;5056865;28;20102;-65
2021/06/01 00:25:34;;;;;;;4.03;3.10;;;12.90;1.00;;;;;;5056068;28;20052;-66
2021/06/01 00:28:22;;;;;;;3.50;3.20;;;12.60;1.00;;;;;;5043930;28;20041;-66
2021/06/01 00:31:10;;;;;;;3.85;3.55;;;12.40;1.00;;;;;;5057127;28;20113;-65
2021/06/01 00:33:59;;;;;;;4.03;3.60;;;12.20;1.00;;;;;;5056836;28;20123;-64
2021/06/01 00:36:47;;;;;;;4.65;3.30;;;12.10;1.00;;;;;;5049647;28;20384;-64
2021/06/01 00:39:36;;;;;;;4.10;3.65;;;12.00;1.00;;;;;;5058666;28;20191;-64
2021/06/01 00:42:24;;;;;;;3.90;3.50;;;11.80;1.00;;;;;;5062199;28;20051;-64
2021/06/01 00:45:17;;;;;;;4.10;3.70;;;11.70;1.00;;;;;;5063613;28;20488;-64
2021/06/01 00:48:06;;;;;;;5.90;3.70;;;11.60;1.00;;;;;;5059480;28;20045;-65
2021/06/01 00:50:55;;;;;;;7.40;4.30;;;11.60;1.00;;;;;;5061109;28;20036;-65
2021/06/01 00:53:43;;;;;;;4.20;3.80;;;11.60;1.00;;;;;;5063145;28;20909;-65
2021/06/01 00:56:33;;;;;;;4.60;3.70;;;11.50;1.00;;;;;;5063851;28;20130;-64
2021/06/01 00:59:20;;;;;;;4.78;4.10;;;11.40;1.00;;;;;;5060173;28;20040;-64
2021/06/01 01:02:08;;;;;;;4.38;3.60;;;11.40;1.00;;;;;;5058886;28;20124;-65
2021/06/01 01:04:56;;;;;;;4.63;3.80;;;11.40;1.00;;;;;;5059680;28;20519;-65
2021/06/01 01:08:02;;;;;;;5.53;4.32;;;11.40;1.00;;;;;;5061342;28;20052;-64
2021/06/01 01:10:54;;;;;;;7.68;4.78;;;11.40;1.00;;;;;;5063846;28;20036;-65
2021/06/01 01:13:48;;;;;;;7.00;4.30;;;11.40;1.00;;;;;;5060225;28;20250;-65
2021/06/01 01:16:41;;;;;;;4.40;4.00;;;11.40;1.00;;;;;;5059641;28;20491;-65
2021/06/01 01:19:55;;;;;;;5.97;3.90;;;11.50;1.00;;;;;;5060448;28;20052;-66
2021/06/01 01:22:47;;;;;;;5.63;4.00;;;11.50;1.00;;;;;;5060403;28;20139;-65
2021/06/01 01:25:41;;;;;;;5.22;4.18;;;11.50;1.00;;;;;;5061232;28;20059;-64
2021/06/01 01:28:37;;;;;;;4.43;3.90;;;11.50;1.00;;;;;;5065926;28;20454;-65
2021/06/01 01:31:33;;;;;;;4.32;3.90;;;11.50;1.00;;;;;;5059851;28;20197;-66
2021/06/01 01:34:24;;;;;;;5.63;3.92;;;11.50;1.00;;;;;;5063383;28;20055;-65
2021/06/01 01:37:12;;;;;;;4.00;3.58;;;11.50;1.00;;;;;;5051707;28;20466;-64
2021/06/01 01:40:01;;;;;;;4.43;3.38;;;11.40;1.00;;;;;;5065529;28;20120;-64
2021/06/01 01:42:53;;;;;;;6.00;3.83;;;11.30;1.00;;;;;;5065507;28;20044;-65
2021/06/01 01:45:44;;;;;;;6.85;4.25;;;11.30;1.00;;;;;;5064410;28;20045;-64
2021/06/01 01:51:44;;;;;;;4.82;4.10;;;11.00;1.00;;;;;;5061123;28;21060;-66
2021/06/01 01:54:33;;;;;;;4.50;4.10;;;10.90;1.00;;;;;;5065451;28;20056;-64
2021/06/01 01:57:22;;;;;;;4.50;3.97;;;11.00;1.00;;;;;;5068553;28;20121;-65
2021/06/01 02:00:13;;;;;;;4.70;4.20;;;11.00;1.00;;;;;;5063676;28;20127;-66
2021/06/01 02:03:02;;;;;;;5.93;4.45;;;11.10;1.00;;;;;;5059368;28;20098;-65
2021/06/01 02:05:50;;;;;;;5.15;3.70;;;11.00;1.00;;;;;;5064100;28;20047;-64
2021/06/01 02:08:40;;;;;;;5.00;3.72;;;11.00;1.00;;;;;;5063927;28;20094;-64
2021/06/01 02:11:28;;;;;;;4.57;4.00;;;11.00;1.00;;;;;;5059867;28;20197;-64
2021/06/01 02:14:17;;;;;;;4.30;3.55;;;11.00;1.00;;;;;;4991097;28;20045;-65
2021/06/01 02:17:05;;;;;;;4.03;3.58;;;11.00;1.00;;;;;;5028010;28;20513;-64
2021/06/01 02:19:53;;;;;;;5.65;3.80;;;11.00;1.00;;;;;;5025852;28;20127;-64
2021/06/01 02:26:01;;;;;;;5.05;4.18;;;11.00;1.00;;;;;;5026669;28;20131;-65
2021/06/01 02:28:54;;;;;;;5.97;3.90;;;10.90;1.00;;;;;;5023229;28;20148;-65
2021/06/01 02:31:46;;;;;;;7.80;4.40;;;10.80;1.00;;;;;;5006455;28;20049;-65
2021/06/01 02:34:38;;;;;;;5.22;4.13;;;10.80;1.00;;;;;;5025549;28;20501;-65
2021/06/01 02:37:27;;;;;;;6.05;4.13;;;10.80;1.00;;;;;;5026712;28;20049;-64
2021/06/01 02:40:17;;;;;;;4.93;4.35;;;10.90;1.00;;;;;;5023271;28;20077;-65
2021/06/01 02:43:09;;;;;;;4.57;3.72;;;10.90;1.00;;;;;;5006231;28;20052;-65
2021/06/01 02:45:58;;;;;;;6.43;4.35;;;10.80;1.00;;;;;;5022636;28;20058;-67
2021/06/01 02:48:47;;;;;;;7.15;3.90;;;10.80;1.00;;;;;;5026699;28;20567;-64
2021/06/01 02:51:37;;;;;;;5.75;3.97;;;10.80;1.00;;;;;;5022580;28;20049;-64
2021/06/01 02:54:27;;;;;;;6.43;4.45;;;10.70;1.00;;;;;;5023775;28;20042;-65
2021/06/01 02:57:18;;;;;;;5.57;4.10;;;10.70;1.00;;;;;;5024301;28;20045;-65
2021/06/01 03:00:10;;;;;;;4.78;4.13;;;10.70;1.00;;;;;;5005189;28;20532;-64
2021/06/01 03:02:58;;;;;;;7.00;4.28;;;10.60;1.00;;;;;;5024216;28;20046;-64
2021/06/01 03:05:46;;;;;;;6.13;4.78;;;10.50;1.00;;;;;;5026285;28;20540;-64
2021/06/01 03:08:34;;;;;;;4.53;4.10;;;10.40;1.00;;;;;;5022708;28;20096;-64
2021/06/01 03:11:22;;;;;;;4.75;4.18;;;10.50;1.00;;;;;;5021038;28;20064;-64
2021/06/01 03:14:10;;;;;;;6.65;4.22;;;10.60;1.00;;;;;;5021286;28;20176;-65
2021/06/01 03:16:59;;;;;;;6.05;4.20;;;10.70;1.00;;;;;;5026893;28;20045;-64
2021/06/01 03:19:47;;;;;;;5.95;3.75;;;10.80;1.00;;;;;;5024339;28;20558;-64
2021/06/01 03:22:37;;;;;;;4.72;3.78;;;10.70;1.00;;;;;;5005670;28;20045;-65
2021/06/01 03:25:24;;;;;;;6.55;4.03;;;10.90;1.00;;;;;;5024088;28;20136;-65
2021/06/01 03:28:14;;;;;;;4.45;3.97;;;10.80;1.00;;;;;;5010967;28;20052;-65
2021/06/01 03:31:02;;;;;;;7.20;4.10;;;10.90;1.00;;;;;;5025582;28;20080;-65
2021/06/01 03:33:53;;;;;;;4.93;3.75;;;11.00;1.00;;;;;;5018670;28;20429;-64
2021/06/01 03:36:45;;;;;;;5.75;4.30;;;10.70;1.00;;;;;;5021730;28;20076;-63
2021/06/01 03:39:34;;;;;;;5.68;4.38;;;10.50;1.00;;;;;;5007271;28;20179;-65
2021/06/01 03:42:21;;;;;;;6.50;5.28;;;10.50;1.00;;;;;;5023819;28;20152;-64
2021/06/01 03:45:11;;;;;;;8.57;5.05;;;11.20;1.00;;;;;;5021745;28;20081;-64
2021/06/01 03:47:59;;;;;;;6.03;4.72;;;11.10;1.00;;;;;;5022557;28;20049;-65
2021/06/01 03:50:49;;;;;;;4.85;4.20;;;11.60;1.00;;;;;;5018126;28;20493;-65
2021/06/01 03:53:37;;;;;;;5.50;4.32;;;12.70;1.00;;;;;;5023146;28;20180;-65
2021/06/01 03:56:25;;;;;;;19.05;7.80;;;12.50;1.00;;;;;;5024960;28;20085;-65
2021/06/01 03:59:12;;;;;;;9.52;4.88;;;12.40;1.00;;;;;;5022177;28;20129;-64
2021/06/01 04:02:00;;;;;;;4.97;4.00;;;13.40;1.00;;;;;;5021208;28;20104;-65
2021/06/01 04:04:49;;;;;;;5.82;4.15;;;14.20;1.00;;;;;;5021411;28;20087;-65
2021/06/01 04:07:39;;;;;;;8.65;4.28;;;14.70;1.00;;;;;;5026447;28;20525;-65
2021/06/01 04:10:26;;;;;;;5.78;4.88;;;14.40;1.00;;;;;;5023159;28;20053;-66
2021/06/01 04:13:14;;;;;;;8.15;4.30;;;14.40;1.00;;;;;;4990199;28;20041;-65
2021/06/01 04:16:03;;;;;;;8.40;4.07;;;14.80;1.00;;;;;;5023760;28;20539;-65
2021/06/01 04:18:50;;;;;;;5.00;4.00;;;15.10;1.00;;;;;;5022065;28;20049;-65
2021/06/01 04:21:40;;;;;;;5.97;3.65;;;15.40;1.00;;;;;;5022529;28;20060;-65
2021/06/01 04:24:29;;;;;;;6.70;3.25;;;15.50;1.00;;;;;;5021367;28;20165;-64
2021/06/01 04:27:17;;;;;;;4.05;3.65;;;16.40;1.00;;;;;;5020573;28;20144;-65
2021/06/01 04:30:07;;;;;;;9.40;4.40;;;15.70;1.00;;;;;;5025284;28;20058;-65
2021/06/01 04:32:55;;;;;;;4.80;3.95;;;16.10;1.00;;;;;;5011094;28;20521;-65
2021/06/01 04:35:44;;;;;;;9.57;4.63;;;15.90;1.00;;;;;;5023025;28;20050;-65
2021/06/01 04:38:32;;;;;;;6.75;4.57;;;16.30;1.00;;;;;;5007964;28;20042;-66
2021/06/01 04:41:22;;;;;;;7.97;4.20;;;16.40;1.00;;;;;;5021838;28;20049;-66
2021/06/01 04:44:10;;;;;;;5.47;3.97;;;16.00;1.00;;;;;;5004137;28;20108;-65
2021/06/01 04:46:57;;;;;;;6.38;4.18;;;16.70;1.00;;;;;;5027540;28;20120;-66
2021/06/01 04:49:47;;;;;;;6.63;3.80;;;17.40;1.00;;;;;;5006726;28;20085;-65
2021/06/01 04:52:35;;;;;;;5.82;3.75;;;17.00;1.00;;;;;;5019760;28;20627;-65
2021/06/01 04:55:23;;;;;;;4.70;3.63;;;18.40;1.00;;;;;;5020452;28;20428;-65
2021/06/01 04:58:12;;;;;;;5.82;3.10;;;17.90;1.00;;;;;;5025530;28;20033;-65
2021/06/01 05:01:00;;;;;;;5.40;3.40;;;18.20;1.00;;;;;;5025251;28;20053;-65
2021/06/01 05:03:48;;;;;;;4.63;3.50;;;18.50;1.00;;;;;;5023738;28;20056;-64
2021/06/01 05:06:36;;;;;;;7.50;3.67;;;18.00;1.00;;;;;;5009401;28;20140;-64
2021/06/01 05:09:24;;;;;;;7.13;4.03;;;18.30;1.00;;;;;;5025078;28;20125;-64
2021/06/01 05:12:12;;;;;;;9.95;4.28;;;17.80;1.00;;;;;;5025649;28;20515;-64
2021/06/01 05:15:02;;;;;;;4.70;3.40;;;19.40;1.00;;;;;;5027080;28;20053;-65
2021/06/01 05:17:49;;;;;;;3.50;2.97;;;19.90;1.00;;;;;;5027383;28;20059;-63
2021/06/01 05:20:38;;;;;;;5.90;3.38;;;20.10;1.00;;;;;;5024818;28;20043;-64
2021/06/01 05:23:26;;;;;;;5.82;3.33;;;20.30;1.00;;;;;;5025161;28;20574;-64
2021/06/01 05:26:14;;;;;;;9.18;3.30;;;19.70;1.00;;;;;;5014700;28;20037;-64
2021/06/01 05:29:02;;;;;;;6.03;3.10;;;20.50;1.00;;;;;;5023606;28;20049;-65
2021/06/01 05:31:56;;;;;;;4.22;2.88;;;19.50;1.00;;;;;;5021560;28;20077;-65
2021/06/01 05:34:47;;;;;;;4.60;3.05;;;20.30;1.00;;;;;;5022308;28;20323;-65
2021/06/01 05:37:36;;;;;;;4.85;3.00;;;20.30;1.00;;;;;;5025187;28;20535;-63
2021/06/01 05:40:24;;;;;;;6.43;3.58;;;20.10;1.00;;;;;;5038980;28;20111;-65
2021/06/01 05:43:12;;;;;;;5.72;3.72;;;20.00;1.00;;;;;;5021881;28;20045;-65
2021/06/01 05:46:00;;;;;;;5.72;3.30;;;20.60;1.00;;;;;;5024186;28;20162;-65
2021/06/01 05:48:49;;;;;;;8.35;3.17;;;19.80;1.00;;;;;;5026655;28;20598;-65
2021/06/01 05:51:38;;;;;;;4.30;3.20;;;19.70;1.00;;;;;;5027595;28;20060;-66
2021/06/01 05:54:27;;;;;;;5.55;4.15;;;18.80;1.00;;;;;;5023074;28;20045;-65
2021/06/01 05:57:15;;;;;;;9.23;3.88;;;18.80;1.00;;;;;;5022488;28;20559;-64
2021/06/01 06:00:07;;;;;;;3.75;3.20;;;18.20;1.00;;;;;;5024165;28;20145;-66
2021/06/01 06:02:57;;;;;;;4.88;3.35;;;18.30;1.00;;;;;;5022181;28;20061;-65
2021/06/01 06:05:48;;;;;;;6.13;3.53;;;17.90;1.00;;;;;;5026286;28;20056;-65
2021/06/01 06:08:35;;;;;;;4.38;3.28;;;17.30;1.00;;;;;;5021285;28;20048;-65
2021/06/01 06:11:23;;;;;;;3.90;2.97;;;16.40;1.00;;;;;;5016842;28;20072;-66
2021/06/01 06:14:11;;;;;;;4.97;3.78;;;16.70;1.00;;;;;;5023948;28;20061;-65
2021/06/01 06:17:12;;;;;;;4.05;2.85;;;16.30;1.00;;;;;;5010179;28;20465;-65
2021/06/01 06:20:00;;;;;;;11.10;3.40;;;16.70;1.00;;;;;;5025837;28;20132;-66
2021/06/01 06:22:49;;;;;;;3.85;2.90;;;17.20;1.00;;;;;;5022460;28;20040;-65
2021/06/01 06:25:38;;;;;;;5.65;3.03;;;18.10;1.00;;;;;;5023367;28;20525;-65
2021/06/01 06:28:26;;;;;;;7.68;3.20;;;17.80;1.00;;;;;;5025912;28;20144;-65
2021/06/01 06:31:14;;;;;;;4.50;3.28;;;18.60;1.00;;;;;;5025021;28;20496;-65
2021/06/01 06:34:01;;;;;;;3.30;2.97;;;18.40;1.00;;;;;;5020190;28;20694;-65
2021/06/01 06:36:49;;;;;;;5.20;2.80;;;17.90;1.00;;;;;;5025818;28;20053;-64
2021/06/01 06:39:39;;;;;;;5.78;3.30;;;18.00;1.00;;;;;;5021278;28;20091;-66
2021/06/01 06:42:27;;;;;;;3.53;3.00;;;18.30;1.00;;;;;;5004379;28;20115;-65
2021/06/01 06:45:16;;;;;;;4.80;3.00;;;18.70;1.00;;;;;;5015892;28;20136;-65
2021/06/01 06:48:09;;;;;;;5.18;3.00;;;17.90;1.00;;;;;;4997926;28;20235;-66
2021/06/01 06:50:57;;;;;;;5.10;3.17;;;17.70;1.00;;;;;;5021235;28;20057;-65
2021/06/01 06:53:51;;;;;;;6.88;3.15;;;17.50;1.00;;;;;;5018117;28;20104;-65
2021/06/01 06:56:41;;;;;;;7.97;3.53;;;17.20;1.00;;;;;;5023811;28;20140;-66
2021/06/01 06:59:29;;;;;;;5.05;3.03;;;17.20;1.00;;;;;;5007432;28;20167;-65
2021/06/01 07:02:18;;;;;;;7.57;5.82;;;17.00;1.00;;;;;;5022839;28;21050;-66
2021/06/01 07:05:07;;;;;;;6.15;3.28;;;17.20;1.00;;;;;;5023267;28;20583;-65
2021/06/01 07:07:56;;;;;;;5.55;3.20;;;17.60;1.00;;;;;;5027156;28;20155;-66
2021/06/01 07:10:44;;;;;;;7.20;3.30;;;18.20;1.00;;;;;;5009296;28;20107;-65
2021/06/01 07:13:48;;;;;;;5.38;3.38;;;17.70;1.00;;;;;;5021399;28;20135;-65
2021/06/01 07:16:36;;;;;;;4.47;2.85;;;18.00;1.00;;;;;;5022264;28;20172;-65
2021/06/01 07:19:24;;;;;;;10.32;3.20;;;17.70;1.00;;;;;;5025357;28;20499;-66
2021/06/01 07:22:12;;;;;;;5.63;2.70;;;18.30;1.00;;;;;;5025397;28;20073;-65
2021/06/01 07:25:00;;;;;;;6.40;3.50;;;18.20;1.00;;;;;;5021536;28;20204;-65
2021/06/01 07:27:48;;;;;;;5.40;3.10;;;18.30;1.00;;;;;;5021576;28;20520;-65
2021/06/01 07:30:37;;;;;;;4.18;2.80;;;18.40;1.00;;;;;;5024187;28;20119;-66
2021/06/01 07:33:25;;;;;;;6.25;2.90;;;18.70;1.00;;;;;;5025574;28;20141;-65
2021/06/01 07:36:13;;;;;;;4.40;2.70;;;19.30;1.00;;;;;;5023979;28;20041;-64
2021/06/01 07:39:02;;;;;;;2.85;2.25;;;18.90;1.00;;;;;;5023548;28;20420;-65
2021/06/01 07:41:50;;;;;;;3.97;2.38;;;19.40;1.00;;;;;;5019221;28;20100;-66
2021/06/01 07:44:38;;;;;;;2.45;2.25;;;19.10;1.00;;;;;;5024706;28;20187;-66
2021/06/01 07:47:27;;;;;;;3.10;2.20;;;19.30;1.00;;;;;;5026354;28;20041;-65
2021/06/01 07:50:16;;;;;;;3.95;2.40;;;19.60;1.00;;;;;;5004707;28;20127;-65
2021/06/01 07:53:04;;;;;;;3.20;2.30;;;19.70;1.00;;;;;;5023091;28;20053;-65
2021/06/01 07:55:52;;;;;;;3.28;2.40;;;19.80;1.00;;;;;;5023273;28;20108;-65
2021/06/01 07:58:40;;;;;;;2.75;2.47;;;19.30;1.00;;;;;;5023332;28;20347;-66
2021/06/01 08:01:28;;;;;;;2.67;2.20;;;19.60;1.00;;;;;;5021871;28;20045;-66
2021/06/01 08:04:17;;;;;;;4.22;2.20;;;19.70;1.00;;;;;;5013026;28;20053;-64
2021/06/01 08:07:08;;;;;;;5.75;2.70;;;19.40;1.00;;;;;;5022788;28;20130;-65
2021/06/01 08:09:56;;;;;;;6.18;2.50;;;19.20;1.00;;;;;;5024193;28;20112;-65
2021/06/01 08:12:44;;;;;;;2.65;2.30;;;19.70;1.00;;;;;;5022144;28;20096;-64
2021/06/01 08:15:33;;;;;;;3.03;2.20;;;20.00;1.00;;;;;;5019454;28;20051;-65
2021/06/01 08:18:22;;;;;;;3.85;2.15;;;19.90;1.00;;;;;;5021909;28;20080;-66
2021/06/01 08:21:13;;;;;;;2.72;2.00;;;20.00;1.00;;;;;;5022199;28;20213;-66
2021/06/01 08:24:01;;;;;;;3.13;2.13;;;20.30;1.00;;;;;;5004492;28;20048;-66
2021/06/01 08:26:51;;;;;;;3.90;2.25;;;20.30;1.00;;;;;;5007732;28;20515;-65
2021/06/01 08:29:38;;;;;;;4.90;2.70;;;20.10;1.00;;;;;;5023713;28;20049;-65
2021/06/01 08:32:26;;;;;;;5.63;2.15;;;19.90;1.00;;;;;;5017702;28;20133;-64
2021/06/01 08:35:15;;;;;;;3.63;2.28;;;20.30;1.00;;;;;;5002554;28;20045;-65
2021/06/01 08:38:04;;;;;;;4.30;2.10;;;20.40;1.00;;;;;;5024511;28;20056;-65
2021/06/01 08:40:52;;;;;;;8.00;2.45;;;20.60;1.00;;;;;;5025845;28;20054;-66
2021/06/01 08:43:40;;;;;;;4.80;2.30;;;20.50;1.00;;;;;;5024302;28;20077;-65
2021/06/01 08:46:28;;;;;;;3.72;2.00;;;20.20;1.00;;;;;;5026716;28;20052;-65
2021/06/01 08:49:18;;;;;;;2.70;2.08;;;20.40;1.00;;;;;;5024982;28;20049;-65
2021/06/01 08:52:06;;;;;;;4.63;2.45;;;20.30;1.00;;;;;;5022344;28;20172;-66
2021/06/01 08:54:56;;;;;;;2.78;2.30;;;20.40;1.00;;;;;;5021363;28;20189;-64
2021/06/01 08:57:44;;;;;;;3.03;2.17;;;20.60;1.00;;;;;;5030042;28;20177;-65
2021/06/01 09:00:32;;;;;;;4.95;2.15;;;20.80;1.00;;;;;;5029553;28;20049;-65
2021/06/01 09:03:23;;;;;;;7.22;2.30;;;20.60;1.00;;;;;;5019406;28;20080;-65
2021/06/01 09:06:18;;;;;;;5.38;2.30;;;21.10;1.00;;;;;;5023855;28;20049;-65
2021/06/01 09:09:20;;;;;;;4.68;2.22;;;21.30;1.00;;;;;;5024775;28;20049;-65
2021/06/01 09:12:22;;;;;;;2.00;1.80;;;21.70;1.00;;;;;;5027045;28;20033;-65
2021/06/01 09:15:29;;;;;;;3.75;2.30;;;20.90;1.00;;;;;;5010508;28;20092;-66
2021/06/01 09:21:30;;;;;;;4.32;2.70;;;21.00;1.00;;;;;;5022420;28;20144;-64
2021/06/01 09:24:18;;;;;;;5.88;2.10;;;20.70;1.00;;;;;;5019528;28;20054;-65
2021/06/01 09:27:16;;;;;;;5.35;2.30;;;21.40;1.00;;;;;;5024428;28;20095;-65
2021/06/01 09:30:05;;;;;;;2.65;2.20;;;21.60;1.00;;;;;;5028510;28;20059;-64
2021/06/01 09:32:53;;;;;;;2.95;2.38;;;21.30;1.00;;;;;;5022769;28;20044;-64
2021/06/01 09:35:49;;;;;;;5.80;2.20;;;21.20;1.00;;;;;;5021366;28;20073;-65
2021/06/01 09:38:43;;;;;;;6.03;2.03;;;21.80;1.00;;;;;;5023663;28;20045;-65
2021/06/01 09:41:31;;;;;;;3.47;2.10;;;21.90;1.00;;;;;;5011234;28;20500;-67
2021/06/01 09:44:21;;;;;;;5.50;2.22;;;21.70;1.00;;;;;;5024721;28;20129;-65
2021/06/01 09:47:09;;;;;;;4.07;2.05;;;21.00;1.00;;;;;;5023386;28;20057;-65
2021/06/01 09:50:16;;;;;;;4.65;2.63;;;21.80;1.00;;;;;;5022016;28;20176;-65
2021/06/01 09:53:09;;;;;;;6.45;1.92;;;21.50;1.00;;;;;;5014740;28;20286;-66
2021/06/01 09:55:58;;;;;;;4.38;2.20;;;21.20;1.00;;;;;;5018958;28;20095;-61
2021/06/01 09:58:46;;;;;;;4.40;2.33;;;21.50;1.00;;;;;;5018145;28;20060;-60
2021/06/01 10:01:35;;;;;;;8.05;2.25;;;21.60;1.00;;;;;;5015824;28;20068;-62
2021/06/01 10:04:25;;;;;;;6.50;2.00;;;21.70;1.00;;;;;;5013329;28;20061;-61
2021/06/01 10:07:27;;;;;;;3.72;2.30;;;21.20;1.00;;;;;;5017951;28;20072;-59
2021/06/01 10:10:18;;;;;;;3.00;2.10;;;21.60;1.00;;;;;;4992605;28;20052;-61
2021/06/01 10:13:07;;;;;;;6.15;2.22;;;21.40;1.00;;;;;;5015417;28;20179;-60
2021/06/01 10:15:58;;;;;;;2.75;1.92;;;21.30;1.00;;;;;;5017453;28;20124;-60
2021/06/01 10:18:47;;;;;;;6.43;1.88;;;21.90;1.00;;;;;;5017865;28;20127;-61
2021/06/01 10:21:35;;;;;;;5.63;2.05;;;22.20;1.00;;;;;;5017953;28;20151;-59
2021/06/01 10:24:23;;;;;;;3.13;2.15;;;22.40;1.00;;;;;;5003723;28;20127;-60
2021/06/01 10:27:11;;;;;;;2.90;2.03;;;22.70;1.00;;;;;;5017206;28;21258;-60
2021/06/01 10:30:00;;;;;;;6.05;2.22;;;22.20;1.00;;;;;;5003095;28;20053;-59
2021/06/01 10:32:52;;;;;;;4.93;2.00;;;21.60;1.00;;;;;;5016021;28;20483;-59
2021/06/01 10:35:52;;;;;;;2.72;2.33;;;21.90;1.00;;;;;;5018060;28;20045;-60
2021/06/01 10:51:28;;;;;;;3.97;2.20;;;22.20;1.00;;;;;;5015880;28;20045;-62
2021/06/01 10:55:00;;;;;;;4.90;2.10;;;22.80;1.00;;;;;;5014850;28;20089;-62
2021/06/01 10:57:59;;;;;;;3.00;1.90;;;22.90;1.00;;;;;;5017684;28;20517;-62
2021/06/01 11:04:10;;;;;;;2.25;2.03;;;23.20;1.00;;;;;;5016687;28;20053;-61
2021/06/01 11:07:13;;;;;;;4.20;2.45;;;22.80;1.00;;;;;;5028838;28;20056;-62
2021/06/01 11:10:02;;;;;;;3.10;2.10;;;23.00;1.00;;;;;;5016472;28;20087;-60
2021/06/01 11:12:51;;;;;;;3.55;2.05;;;22.60;1.00;;;;;;5010855;28;20056;-62
2021/06/01 11:15:41;;;;;;;3.03;2.08;;;22.60;1.00;;;;;;5018388;28;20172;-61
2021/06/01 11:18:33;;;;;;;2.25;1.80;;;22.60;1.00;;;;;;5017533;28;20103;-60
2021/06/01 11:21:28;;;;;;;3.00;2.28;;;22.50;1.00;;;;;;5014592;28;20045;-60
2021/06/01 11:33:39;;;;;;;4.43;1.70;;;22.90;1.00;;;;;;5019344;28;20129;-59
2021/06/01 11:36:35;;;;;;;3.78;1.88;;;23.10;1.00;;;;;;5020435;28;20049;-60
2021/06/01 11:39:31;;;;;;;5.22;2.88;;;23.20;1.00;;;;;;5017003;28;20140;-60
2021/06/01 11:45:40;;;;;;;7.15;2.80;;;23.30;1.00;;;;;;5019084;28;20509;-59
2021/06/01 11:51:34;;;;;;;4.13;2.13;;;23.30;1.00;;;;;;5035361;28;20058;-62
2021/06/01 11:54:22;;;;;;;2.70;2.08;;;22.60;1.00;;;;;;5008516;28;20056;-62
2021/06/01 11:57:12;;;;;;;2.70;2.25;;;22.90;1.00;;;;;;5024026;28;20053;-62
2021/06/01 12:03:10;;;;;;;3.78;2.20;;;23.30;1.00;;;;;;4978107;28;20713;-60
2021/06/01 12:12:28;;;;;;;3.00;2.20;;;23.10;1.00;;;;;;5020520;28;20124;-60
2021/06/01 12:18:30;;;;;;;7.72;2.10;;;23.20;1.00;;;;;;5007878;28;20057;-60
2021/06/01 12:21:20;;;;;;;;;;;23.40;1.00;;;;;;5024497;28;20133;-62
2021/06/01 12:24:12;;;;;;;5.18;2.08;;;23.20;1.00;;;;;;5022060;28;19929;-60
2021/06/01 12:27:12;;;;;;;4.85;2.10;;;23.30;1.00;;;;;;5020603;28;20046;-60
2021/06/01 12:33:18;;;;;;;2.40;2.20;;;23.30;1.00;;;;;;5018514;28;20053;-61
2021/06/01 12:45:55;;;;;;;3.20;2.10;;;24.10;1.00;;;;;;5022728;28;20515;-61
2021/06/01 13:14:15;;;;;;;4.45;2.80;;;24.10;1.00;;;;;;5020356;28;20322;-61
2021/06/01 13:20:28;;;;;;;3.35;2.10;;;24.50;1.00;;;;;;5022680;28;20528;-61
2021/06/01 13:32:49;;;;;;;3.85;1.55;;;23.70;1.00;;;;;;5025600;28;20539;-61
2021/06/01 13:38:52;;;;;;;2.40;2.00;;;24.10;1.00;;;;;;5024521;28;20463;-61
2021/06/01 13:47:58;;;;;;;5.35;1.85;;;24.30;1.00;;;;;;5031144;28;20094;-61
2021/06/01 13:50:54;;;;;;;3.33;2.30;;;24.20;1.00;;;;;;5029263;28;20115;-62
2021/06/01 13:56:54;;;;;;;3.88;2.10;;;24.40;1.00;;;;;;5008167;28;20487;-61
2021/06/01 13:59:53;;;;;;;3.05;1.98;;;24.70;1.00;;;;;;5028266;28;20098;-61
2021/06/01 14:15:38;;;;;;;3.90;1.55;;;24.70;1.00;;;;;;5022236;28;20053;-60
2021/06/01 14:21:48;;;;;;;2.67;2.03;;;24.40;1.00;;;;;;5024957;28;20519;-61
2021/06/01 14:28:41;;;;;;;3.28;1.90;;;24.80;1.00;;;;;;5027947;28;20082;-61
2021/06/01 14:31:29;;;;;;;4.20;1.90;;;24.60;1.00;;;;;;5024522;28;20057;-61
2021/06/01 14:37:45;;;;;;;4.68;2.10;;;24.40;1.00;;;;;;4996265;28;20077;-61
2021/06/01 15:28:37;;;;;;;4.38;2.00;;;24.40;1.00;;;;;;5023627;28;20160;-60
2021/06/01 15:49:47;;;;;;;3.38;2.10;;;25.10;1.00;;;;;;5033740;28;20045;-61
2021/06/01 16:12:16;;;;;;;6.70;2.45;;;25.20;1.00;;;;;;5006290;28;20478;-60
2021/06/01 16:15:19;;;;;;;3.75;2.08;;;25.10;1.00;;;;;;5004391;28;20053;-60
2021/06/01 16:21:36;;;;;;;3.13;1.92;;;25.00;1.00;;;;;;5007341;28;20049;-60
2021/06/01 16:43:30;;;;;;;3.53;2.00;;;25.00;1.00;;;;;;4958558;28;20046;-62
2021/06/01 17:05:30;;;;;;;8.60;2.20;;;24.70;1.00;;;;;;5010220;28;20611;-61
2021/06/01 17:08:39;;;;;;;4.22;2.05;;;24.60;1.00;;;;;;5025566;28;20041;-61
2021/06/01 17:11:31;;;;;;;3.35;2.10;;;25.00;1.00;;;;;;5022150;28;20053;-63
2021/06/01 17:14:24;;;;;;;2.83;2.00;;;25.20;1.00;;;;;;5026977;28;20045;-60
2021/06/01 17:17:14;;;;;;;2.25;1.92;;;25.30;1.00;;;;;;4990753;28;20057;-60
2021/06/01 17:20:17;;;;;;;2.65;1.70;;;25.70;1.00;;;;;;5024547;28;20512;-60
2021/06/01 17:23:25;;;;;;;3.25;1.80;;;25.50;1.00;;;;;;5022369;28;20052;-61
2021/06/01 17:35:35;;;;;;;3.17;1.98;;;26.30;1.00;;;;;;5011829;28;20127;-62
2021/06/01 17:38:25;;;;;;;5.93;2.00;;;26.50;1.00;;;;;;5025443;28;20041;-61
2021/06/01 17:41:18;;;;;;;2.88;1.85;;;26.80;1.00;;;;;;5008445;28;20045;-62
2021/06/01 17:44:08;;;;;;;2.70;1.60;;;27.60;1.00;;;;;;5024342;28;20048;-61
2021/06/01 17:47:01;;;;;;;2.00;1.80;;;27.40;1.00;;;;;;5008091;28;20199;-61
2021/06/01 17:49:51;;;;;;;2.20;1.83;;;27.70;1.00;;;;;;5009937;28;20136;-61
2021/06/01 17:52:40;;;;;;;3.78;2.03;;;27.40;1.00;;;;;;5023221;28;20050;-62
2021/06/01 17:55:31;;;;;;;3.53;2.40;;;27.00;1.00;;;;;;5022086;28;20041;-61
2021/06/01 17:58:22;;;;;;;3.25;1.83;;;25.20;1.00;;;;;;5023976;28;20095;-61
2021/06/01 18:01:10;;;;;;;3.22;1.90;;;26.60;1.00;;;;;;5025693;28;20041;-61
2021/06/01 18:04:00;;;;;;;7.07;2.00;;;27.00;1.00;;;;;;5024238;28;20052;-61
2021/06/01 18:06:52;;;;;;;1.83;1.63;;;26.30;1.00;;;;;;4990145;28;20593;-61
2021/06/01 18:35:34;;;;;;;7.70;2.30;;;22.60;1.00;;;;;;5032071;28;20474;-62
2021/06/01 18:42:00;;;;;;;3.75;2.17;;;22.30;1.00;;;;;;5007794;28;20053;-62
2021/06/01 18:51:35;;;;;;;3.33;2.35;;;22.00;1.00;;;;;;5009100;28;20056;-62
2021/06/01 19:01:17;;;;;;;8.82;2.95;;;21.60;1.00;;;;;;5024499;28;20424;-63
2021/06/01 19:23:32;;;;;;;2.55;2.30;;;20.90;1.00;;;;;;5017879;28;20048;-62
2021/06/01 19:26:26;;;;;;;4.43;2.60;;;20.90;1.00;;;;;;5018670;28;20056;-63
2021/06/01 19:29:38;;;;;;;4.43;2.53;;;20.60;1.00;;;;;;5024801;28;20064;-62
2021/06/01 19:42:34;;;;;;;11.27;3.00;;;20.60;1.00;;;;;;5025129;28;20183;-63
2021/06/01 19:51:46;;;;;;;4.50;2.88;;;20.30;1.00;;;;;;5022559;28;20041;-62
2021/06/01 19:54:35;;;;;;;4.75;2.25;;;20.20;1.00;;;;;;5006327;28;20084;-61
2021/06/01 19:57:24;;;;;;;5.18;2.67;;;20.10;1.00;;;;;;5022697;28;20069;-62
2021/06/01 20:00:13;;;;;;;6.35;2.70;;;20.10;1.00;;;;;;5011294;28;20088;-61
2021/06/01 20:03:01;;;;;;;4.85;3.10;;;20.00;1.00;;;;;;5020091;28;20045;-61
2021/06/01 20:05:59;;;;;;;6.22;2.90;;;19.90;1.00;;;;;;5019859;28;20110;-62
2021/06/01 20:08:47;;;;;;;4.32;3.17;;;19.90;1.00;;;;;;5022700;28;20054;-62
2021/06/01 20:11:35;;;;;;;5.22;3.22;;;19.90;1.00;;;;;;5023407;28;20045;-62
2021/06/01 20:14:23;;;;;;;7.38;3.25;;;19.80;1.00;;;;;;5021410;28;20049;-62
2021/06/01 20:17:17;;;;;;;4.97;3.42;;;19.80;1.00;;;;;;5019794;28;20496;-62
2021/06/01 20:20:09;;;;;;;4.43;2.80;;;19.70;1.00;;;;;;5002046;28;20131;-62
2021/06/01 20:23:04;;;;;;;4.38;2.85;;;19.70;1.00;;;;;;5019770;28;20049;-62
2021/06/01 20:26:02;;;;;;;7.13;2.67;;;19.70;1.00;;;;;;5019811;28;20049;-62
2021/06/01 20:28:57;;;;;;;5.85;2.80;;;19.60;1.00;;;;;;5018438;28;20459;-59
2021/06/01 20:31:56;;;;;;;5.93;2.38;;;19.60;1.00;;;;;;5017834;28;20524;-60
2021/06/01 20:34:44;;;;;;;5.15;3.00;;;19.50;1.00;;;;;;5019017;28;20409;-59
2021/06/01 20:37:32;;;;;;;4.20;2.35;;;19.40;1.00;;;;;;5019599;28;20515;-59
2021/06/01 20:40:24;;;;;;;9.52;3.33;;;19.40;1.00;;;;;;5023654;28;20087;-60
2021/06/01 20:43:12;;;;;;;4.55;2.60;;;19.30;1.00;;;;;;5021639;28;20128;-60
2021/06/01 20:46:00;;;;;;;5.75;2.85;;;19.30;1.00;;;;;;5003244;28;20041;-60
2021/06/01 20:48:48;;;;;;;6.85;2.97;;;19.20;1.00;;;;;;5012682;28;20156;-60
2021/06/01 20:51:37;;;;;;;3.40;2.60;;;19.20;1.00;;;;;;5020109;28;20057;-60
2021/06/01 20:54:25;;;;;;;4.60;2.70;;;19.00;1.00;;;;;;5021709;28;20552;-60
2021/06/01 20:57:16;;;;;;;3.72;2.60;;;18.90;1.00;;;;;;5020079;28;20089;-60